Terminal Aerodrome Forecast
Issued by NWS

Home | Current Version | Previous Version | Text Only | Print | Product List | Glossary On
Versions: 1 2 3 4 5 6 7 8 9 10 11 12 13 14 15 16 17 18 19 20 21 22 23 24 25 26 27 28 29 30 31 32 33 34 35 36 37 38 39 40 41
000
FTUS42 KRAH 180358 AAA
TAFRWI
TAF AMD
KRWI 180358Z 1804/1824 VRB03KT 3SM -RADZ BR OVC008
     FM180900 31007KT 5SM BR BKN015
     FM181100 32008KT P6SM SCT140
     FM181400 05007KT P6SM SKC=

USA.gov is the U.S. government's official web portal to all federal, state and local government web resources and services.